Time;durP1;ratioP1;P1;durP2;ratioP2;P2;SDS_P1;SDS_P2;PMS_P1;PMS_P2;Temp;Humidity;BMP_temperature;BMP_pressure;BME280_temperature;BME280_humidity;BME280_pressure;Samples;Min_cycle;Max_cycle;Signal;HPM_P1;HPM_P2
2022/07/19 00:02:05;;;;;;;9.63;5.57;;;;;;;20.58;34.73;101380.75;5015630;28;20077;-69
2022/07/19 00:04:33;;;;;;;15.73;6.10;;;;;;;20.54;34.86;101382.25;5013843;28;20465;-69
2022/07/19 00:07:00;;;;;;;12.05;4.80;;;;;;;20.63;34.72;101381.00;5013751;28;20042;-69
2022/07/19 00:09:27;;;;;;;11.75;5.68;;;;;;;20.65;34.79;101371.53;5014495;28;20066;-69
2022/07/19 00:11:54;;;;;;;13.90;5.80;;;;;;;20.67;34.96;101382.25;5014615;28;20145;-69
2022/07/19 00:14:21;;;;;;;11.90;5.80;;;;;;;20.54;34.92;101383.06;5013920;28;20062;-69
2022/07/19 00:16:48;;;;;;;10.32;6.15;;;;;;;20.41;35.09;101386.63;5015018;28;20069;-69
2022/07/19 00:19:15;;;;;;;7.40;4.28;;;;;;;20.36;35.28;101378.22;5014270;28;20076;-69
2022/07/19 00:21:42;;;;;;;8.45;5.25;;;;;;;20.35;35.17;101379.28;5014146;28;20070;-69
2022/07/19 00:24:08;;;;;;;8.32;5.25;;;;;;;20.22;35.65;101383.88;5015968;28;20306;-69
2022/07/19 00:26:35;;;;;;;10.15;5.68;;;;;;;20.02;35.96;101383.84;5013508;28;20107;-69
2022/07/19 00:29:02;;;;;;;10.90;5.10;;;;;;;20.19;35.61;101382.41;5013553;28;20061;-69
2022/07/19 00:31:30;;;;;;;11.75;5.53;;;;;;;20.19;36.06;101387.88;5013918;28;20077;-69
2022/07/19 00:33:57;;;;;;;10.43;4.70;;;;;;;20.15;35.81;101382.00;5014960;28;20071;-69
2022/07/19 00:36:24;;;;;;;13.05;5.28;;;;;;;20.22;35.68;101387.44;5014942;28;20486;-69
2022/07/19 00:38:50;;;;;;;14.55;5.25;;;;;;;20.12;36.01;101381.56;5013515;28;20493;-68
2022/07/19 00:41:17;;;;;;;12.10;4.88;;;;;;;19.86;36.16;101383.19;5013079;28;20128;-69
2022/07/19 00:43:44;;;;;;;10.65;4.65;;;;;;;20.11;35.93;101382.63;5014175;28;20062;-69
2022/07/19 00:46:19;;;;;;;13.35;4.82;;;;;;;19.93;35.99;101383.19;5015403;28;20121;-69
2022/07/19 00:48:46;;;;;;;15.90;5.07;;;;;;;19.91;36.34;101380.69;5014401;28;20064;-69
2022/07/19 00:51:15;;;;;;;10.82;4.60;;;;;;;19.94;35.95;101390.34;5014342;28;20509;-70
2022/07/19 00:53:42;;;;;;;9.50;5.13;;;;;;;19.89;36.16;101396.38;5013636;28;20383;-70
2022/07/19 00:56:11;;;;;;;10.73;4.40;;;;;;;19.79;36.27;101389.66;5014288;28;20084;-70
2022/07/19 00:58:38;;;;;;;7.55;4.38;;;;;;;19.87;36.04;101397.66;5014753;28;20434;-70
2022/07/19 01:01:07;;;;;;;8.52;3.63;;;;;;;19.75;36.16;101394.69;5013947;28;20049;-70
2022/07/19 01:03:38;;;;;;;7.57;4.07;;;;;;;19.81;35.67;101391.13;5014654;28;20574;-70
2022/07/19 01:09:46;;;;;;;11.93;4.07;;;;;;;19.89;36.04;101401.84;5007073;28;20171;-70
2022/07/19 01:12:14;;;;;;;12.35;4.28;;;;;;;19.85;35.93;101395.13;4994530;28;20145;-70
2022/07/19 01:14:40;;;;;;;12.10;3.63;;;;;;;19.68;36.19;101400.09;5012927;28;20470;-70
2022/07/19 01:17:07;;;;;;;9.32;4.50;;;;;;;19.79;35.95;101401.38;5013189;28;20050;-70
2022/07/19 01:19:34;;;;;;;6.85;3.72;;;;;;;19.83;35.99;101401.81;5014344;28;20541;-70
2022/07/19 01:22:00;;;;;;;8.40;4.00;;;;;;;19.70;35.98;101391.75;5014498;28;20073;-70
2022/07/19 01:24:27;;;;;;;8.80;4.13;;;;;;;19.44;36.33;101395.16;5013804;28;20056;-70
2022/07/19 01:26:54;;;;;;;13.88;4.72;;;;;;;19.45;36.58;101392.25;5012685;28;20076;-70
2022/07/19 01:29:21;;;;;;;16.30;3.78;;;;;;;19.58;36.29;101390.59;5014863;28;20049;-70
2022/07/19 01:31:47;;;;;;;8.43;3.60;;;;;;;19.69;36.32;101393.63;5014063;28;20046;-69
2022/07/19 01:34:14;;;;;;;7.13;3.92;;;;;;;19.65;36.12;101388.75;5013420;28;20531;-69
2022/07/19 01:36:40;;;;;;;10.68;3.70;;;;;;;19.53;35.90;101388.50;5013890;28;20057;-71
2022/07/19 01:39:06;;;;;;;8.98;3.70;;;;;;;19.43;36.24;101388.88;5013859;28;20141;-69
2022/07/19 01:41:33;;;;;;;9.05;3.78;;;;;;;19.48;36.22;101389.13;5012506;28;20132;-71
2022/07/19 01:44:00;;;;;;;6.85;4.00;;;;;;;19.43;36.62;101383.44;5011826;28;20050;-69
2022/07/19 01:46:27;;;;;;;11.65;3.90;;;;;;;19.41;36.23;101390.13;5012799;28;20038;-69
2022/07/19 01:48:53;;;;;;;7.20;3.95;;;;;;;19.34;36.44;101387.38;5014339;28;20065;-68
2022/07/19 01:51:20;;;;;;;8.68;3.85;;;;;;;19.46;36.48;101383.03;5014199;28;20085;-69
2022/07/19 01:53:46;;;;;;;8.43;3.88;;;;;;;19.41;36.41;101388.22;5013670;28;20051;-69
2022/07/19 01:56:13;;;;;;;8.48;3.65;;;;;;;19.32;36.44;101375.84;5009049;28;20109;-68
2022/07/19 01:58:39;;;;;;;11.80;4.00;;;;;;;19.22;36.69;101376.22;5013352;28;20076;-68
2022/07/19 02:01:06;;;;;;;11.13;4.20;;;;;;;19.17;36.66;101375.13;5013164;28;20132;-68
2022/07/19 02:03:32;;;;;;;10.75;3.85;;;;;;;19.14;36.70;101380.97;5012513;28;20049;-69
2022/07/19 02:05:59;;;;;;;9.40;3.83;;;;;;;19.13;36.92;101379.31;5012459;28;20084;-67
2022/07/19 02:08:25;;;;;;;9.98;4.07;;;;;;;19.16;36.84;101378.91;5011936;28;20045;-69
2022/07/19 02:10:52;;;;;;;7.95;3.70;;;;;;;19.09;36.87;101368.00;5020013;28;20482;-68
2022/07/19 02:13:19;;;;;;;7.57;3.83;;;;;;;19.01;37.06;101376.31;5013269;28;20065;-69
2022/07/19 02:15:46;;;;;;;8.05;3.67;;;;;;;19.00;37.28;101372.78;5012772;28;20052;-68
2022/07/19 02:18:12;;;;;;;11.57;3.90;;;;;;;18.82;37.32;101377.00;5013009;28;20077;-69
2022/07/19 02:20:39;;;;;;;8.40;4.00;;;;;;;19.00;36.96;101378.22;5013295;28;20041;-68
2022/07/19 02:23:05;;;;;;;10.18;3.70;;;;;;;19.02;36.97;101367.94;5013595;28;20120;-68
2022/07/19 02:25:32;;;;;;;7.32;3.65;;;;;;;19.19;36.84;101371.19;5011387;28;20213;-68
2022/07/19 02:28:00;;;;;;;9.73;3.58;;;;;;;19.27;36.99;101381.06;5011596;28;20130;-68
2022/07/19 02:30:27;;;;;;;9.20;3.70;;;;;;;19.26;37.19;101377.50;5013657;28;20128;-68
2022/07/19 02:32:54;;;;;;;9.57;3.97;;;;;;;19.21;37.37;101380.00;5013656;28;20129;-68
2022/07/19 02:35:25;;;;;;;8.05;3.80;;;;;;;19.21;37.51;101381.88;5012857;28;20046;-68
2022/07/19 02:37:51;;;;;;;7.80;3.80;;;;;;;19.09;37.56;101381.59;5013660;28;20084;-69
2022/07/19 02:40:18;;;;;;;7.10;4.25;;;;;;;19.07;37.92;101377.38;5013228;28;20148;-69
2022/07/19 02:42:44;;;;;;;8.48;3.53;;;;;;;19.08;37.78;101379.09;5013056;28;20065;-69
2022/07/19 02:45:11;;;;;;;10.80;3.88;;;;;;;18.81;37.95;101378.88;5012575;28;20517;-70
2022/07/19 02:47:38;;;;;;;10.85;3.78;;;;;;;19.01;37.65;101379.03;5013216;28;20056;-70
2022/07/19 02:50:05;;;;;;;6.07;3.28;;;;;;;18.92;38.27;101372.91;5012395;28;20053;-69
2022/07/19 02:52:32;;;;;;;10.35;3.78;;;;;;;18.79;37.97;101370.06;5012724;28;20622;-70
2022/07/19 02:54:58;;;;;;;7.65;3.72;;;;;;;18.77;38.00;101377.59;5013114;28;20045;-70
2022/07/19 02:57:25;;;;;;;9.43;3.75;;;;;;;18.76;38.54;101370.50;5013496;28;20080;-71
2022/07/19 02:59:51;;;;;;;12.65;4.07;;;;;;;18.76;38.18;101371.34;5011510;28;20100;-70
2022/07/19 03:02:18;;;;;;;8.80;3.97;;;;;;;18.44;38.42;101364.59;5012702;28;20458;-70
2022/07/19 03:04:44;;;;;;;7.10;3.78;;;;;;;18.67;38.22;101366.25;5012923;28;20045;-70
2022/07/19 03:07:11;;;;;;;11.30;3.92;;;;;;;18.66;38.17;101368.13;5013138;28;20107;-69
2022/07/19 03:09:38;;;;;;;11.10;4.30;;;;;;;18.70;38.19;101366.69;5012731;28;20138;-70
2022/07/19 03:12:04;;;;;;;8.52;4.30;;;;;;;18.70;38.22;101360.41;5012175;28;20415;-70
2022/07/19 03:14:31;;;;;;;10.63;3.80;;;;;;;18.66;38.26;101368.13;5013127;28;20137;-70
2022/07/19 03:16:57;;;;;;;11.32;3.78;;;;;;;18.64;38.03;101374.78;5012883;28;20141;-70
2022/07/19 03:19:26;;;;;;;8.90;3.80;;;;;;;18.70;38.42;101372.13;5012204;28;20045;-70
2022/07/19 03:21:53;;;;;;;8.18;3.83;;;;;;;18.73;38.11;101365.44;5013397;28;20045;-70
2022/07/19 03:24:20;;;;;;;10.40;3.88;;;;;;;18.75;38.54;101371.50;5017260;28;20482;-70
2022/07/19 03:26:46;;;;;;;10.15;3.40;;;;;;;18.68;38.54;101373.34;5017083;28;20462;-70
2022/07/19 03:29:13;;;;;;;12.85;3.85;;;;;;;18.71;38.67;101372.94;5017065;28;20137;-70
2022/07/19 03:31:39;;;;;;;8.13;4.13;;;;;;;18.75;38.67;101366.91;5017069;28;20490;-70
2022/07/19 03:34:06;;;;;;;9.45;4.22;;;;;;;18.83;38.38;101363.22;5016904;28;20141;-70
2022/07/19 03:36:33;;;;;;;13.48;3.88;;;;;;;18.79;38.57;101364.63;5016080;28;20459;-70
2022/07/19 03:38:59;;;;;;;8.63;3.60;;;;;;;18.85;38.55;101371.16;5008297;28;20548;-70
2022/07/19 03:41:26;;;;;;;12.77;4.18;;;;;;;18.78;38.59;101369.25;5016960;28;20543;-70
2022/07/19 03:43:52;;;;;;;12.05;3.90;;;;;;;18.83;38.63;101376.81;5016063;28;20077;-70
2022/07/19 03:46:20;;;;;;;15.95;4.35;;;;;;;18.82;38.81;101369.69;5015557;28;20125;-70
2022/07/19 03:48:47;;;;;;;11.77;4.20;;;;;;;18.79;38.62;101372.78;5016274;28;20050;-70
2022/07/19 03:51:14;;;;;;;15.45;4.00;;;;;;;18.81;38.90;101364.44;5015517;28;20120;-70
2022/07/19 03:53:40;;;;;;;13.98;4.70;;;;;;;18.44;38.96;101358.31;5015536;28;20133;-70
2022/07/19 03:56:07;;;;;;;22.45;4.10;;;;;;;18.72;38.86;101359.19;5015611;28;20105;-70
2022/07/19 03:58:33;;;;;;;13.70;3.92;;;;;;;18.51;38.85;101359.22;5016046;28;20550;-70
2022/07/19 04:01:00;;;;;;;13.93;4.00;;;;;;;18.64;39.02;101366.63;5016513;28;20049;-70
2022/07/19 04:03:27;;;;;;;9.15;3.90;;;;;;;18.77;38.92;101364.00;5014911;28;20042;-70
2022/07/19 04:05:53;;;;;;;13.40;5.10;;;;;;;18.82;38.68;101366.13;5016485;28;20096;-70
2022/07/19 04:08:20;;;;;;;11.18;3.67;;;;;;;18.72;38.69;101375.50;5015350;28;20128;-70
2022/07/19 04:10:47;;;;;;;12.18;3.90;;;;;;;18.74;38.44;101370.69;5015648;28;20579;-70
2022/07/19 04:13:13;;;;;;;17.42;7.18;;;;;;;18.90;38.43;101371.41;5015119;28;20076;-70
2022/07/19 04:15:40;;;;;;;18.98;9.98;;;;;;;18.95;38.50;101363.53;5015838;28;20061;-71
2022/07/19 04:18:12;;;;;;;13.88;5.82;;;;;;;18.86;38.48;101376.41;5015942;28;20073;-70
2022/07/19 04:20:38;;;;;;;6.82;3.90;;;;;;;18.82;38.28;101377.84;5015357;28;20077;-70
2022/07/19 04:23:05;;;;;;;7.68;3.70;;;;;;;18.73;37.47;101374.44;5015285;28;20073;-70
2022/07/19 04:25:31;;;;;;;10.77;3.28;;;;;;;18.31;37.69;101378.09;5014299;28;20525;-70
2022/07/19 04:27:58;;;;;;;9.48;3.55;;;;;;;18.59;37.44;101377.28;5014911;28;20124;-70
2022/07/19 04:30:24;;;;;;;5.88;3.30;;;;;;;18.50;37.38;101382.84;5015488;28;20045;-70
2022/07/19 04:32:51;;;;;;;8.38;3.50;;;;;;;18.70;37.48;101384.88;5014325;28;20080;-70
2022/07/19 04:35:17;;;;;;;8.05;3.25;;;;;;;18.83;37.24;101384.97;5013519;28;20145;-70
2022/07/19 04:37:44;;;;;;;12.45;3.88;;;;;;;18.78;37.28;101387.44;5013836;28;20480;-70
2022/07/19 04:40:11;;;;;;;11.35;3.80;;;;;;;18.91;36.72;101387.53;5014076;28;20077;-70
2022/07/19 04:42:38;;;;;;;11.57;3.83;;;;;;;18.95;36.96;101386.09;5015215;28;20049;-70
2022/07/19 04:45:06;;;;;;;14.65;4.03;;;;;;;18.97;37.03;101394.09;5015079;28;20046;-70
2022/07/19 04:47:32;;;;;;;11.63;3.72;;;;;;;18.89;37.04;101384.16;5014316;28;20124;-70
2022/07/19 04:49:59;;;;;;;20.42;5.65;;;;;;;18.92;37.16;101396.50;5016221;28;20041;-70
2022/07/19 04:52:25;;;;;;;14.43;4.38;;;;;;;18.90;37.33;101398.59;5014219;28;20128;-70
2022/07/19 04:54:52;;;;;;;13.48;4.03;;;;;;;18.92;37.04;101389.22;5015302;28;20111;-70
2022/07/19 04:57:18;;;;;;;14.57;4.13;;;;;;;18.90;37.24;101393.16;5015336;28;20562;-69
2022/07/19 04:59:45;;;;;;;12.02;4.28;;;;;;;18.79;37.71;101391.81;5015204;28;20521;-70
2022/07/19 05:02:11;;;;;;;16.00;4.65;;;;;;;18.85;37.55;101393.75;5014929;28;20073;-70
2022/07/19 05:04:38;;;;;;;12.65;4.00;;;;;;;18.72;37.88;101388.22;5016110;28;20413;-69
2022/07/19 05:07:05;;;;;;;9.15;3.67;;;;;;;18.51;38.20;101387.25;5015570;28;20050;-70
2022/07/19 05:09:31;;;;;;;21.80;4.68;;;;;;;18.58;38.80;101390.00;5015184;28;20061;-70
2022/07/19 05:11:58;;;;;;;18.92;3.90;;;;;;;18.58;38.87;101389.16;5015803;28;20060;-70
2022/07/19 05:14:24;;;;;;;13.98;4.25;;;;;;;18.94;38.20;101386.31;5015816;28;20129;-69
2022/07/19 05:16:51;;;;;;;15.05;4.05;;;;;;;18.86;38.30;101390.00;5016506;28;20529;-70
2022/07/19 05:19:17;;;;;;;13.80;4.22;;;;;;;18.96;38.48;101387.78;5016085;28;20069;-70
2022/07/19 05:21:45;;;;;;;15.88;4.45;;;;;;;18.95;38.81;101386.09;5015998;28;20092;-70
2022/07/19 05:24:12;;;;;;;8.32;4.40;;;;;;;18.97;38.54;101391.38;5015894;28;20050;-70
2022/07/19 05:26:38;;;;;;;9.38;4.47;;;;;;;19.01;38.72;101388.03;5014883;28;20471;-70
2022/07/19 05:29:05;;;;;;;11.27;4.38;;;;;;;19.09;38.25;101403.34;5015172;28;20077;-70
2022/07/19 05:31:31;;;;;;;14.85;4.47;;;;;;;18.99;38.37;101392.81;5015467;28;20125;-69
2022/07/19 05:33:58;;;;;;;21.35;4.30;;;;;;;19.32;37.72;101400.34;5012395;28;20045;-70
2022/07/19 05:36:25;;;;;;;10.45;4.13;;;;;;;19.23;38.13;101396.94;5014122;28;20061;-70
2022/07/19 05:38:53;;;;;;;7.45;3.60;;;;;;;19.37;37.71;101405.16;5012414;28;20041;-69
2022/07/19 05:41:21;;;;;;;10.48;3.47;;;;;;;19.40;37.69;101399.31;5014328;28;20042;-68
2022/07/19 05:43:51;;;;;;;9.70;3.30;;;;;;;19.57;37.51;101408.81;5015545;28;20506;-68
2022/07/19 05:46:18;;;;;;;17.08;3.58;;;;;;;19.54;37.52;101400.22;5014764;28;20049;-70
2022/07/19 05:48:45;;;;;;;11.35;3.25;;;;;;;19.65;37.21;101407.78;5014118;28;20133;-69
2022/07/19 05:51:12;;;;;;;16.58;3.90;;;;;;;19.72;37.27;101414.97;5015319;28;20077;-70
2022/07/19 05:53:38;;;;;;;7.40;3.63;;;;;;;19.77;37.24;101417.09;5013868;28;20054;-69
2022/07/19 05:56:05;;;;;;;13.02;3.38;;;;;;;19.73;37.12;101415.84;5014694;28;20133;-69
2022/07/19 05:58:32;;;;;;;8.40;3.42;;;;;;;19.88;36.87;101410.22;5014614;28;20065;-69
2022/07/19 06:01:19;;;;;;;13.13;3.63;;;;;;;19.75;36.73;101410.16;5013710;28;20125;-69
2022/07/19 06:03:47;;;;;;;19.10;3.70;;;;;;;20.00;36.68;101413.16;5014937;28;20042;-69
2022/07/19 06:06:21;;;;;;;15.48;3.55;;;;;;;20.02;36.66;101408.38;5014426;28;20042;-69
2022/07/19 06:08:49;;;;;;;7.20;3.50;;;;;;;20.10;36.59;101406.28;5014477;28;20042;-69
2022/07/19 06:11:17;;;;;;;10.30;3.63;;;;;;;20.22;36.60;101408.41;5015350;28;20046;-69
2022/07/19 06:13:46;;;;;;;8.52;3.08;;;;;;;20.30;36.71;101405.47;5013999;28;20065;-69
2022/07/19 06:16:13;;;;;;;12.20;3.42;;;;;;;20.28;36.48;101407.56;5013773;28;20414;-70
2022/07/19 06:18:40;;;;;;;10.38;3.38;;;;;;;20.50;36.50;101408.25;5014285;28;20042;-69
2022/07/19 06:21:18;;;;;;;7.63;2.80;;;;;;;20.67;36.19;101399.44;5013564;28;20453;-70
2022/07/19 06:23:47;;;;;;;9.20;3.17;;;;;;;20.73;36.20;101402.34;5014022;28;20049;-70
2022/07/19 06:26:14;;;;;;;13.02;3.25;;;;;;;20.70;36.11;101402.75;5014469;28;20076;-69
2022/07/19 06:28:40;;;;;;;13.60;3.55;;;;;;;20.79;36.15;101399.63;5014787;28;20120;-70
2022/07/19 06:31:08;;;;;;;10.73;3.00;;;;;;;20.94;35.89;101407.59;5014530;28;20100;-69
2022/07/19 06:33:37;;;;;;;8.38;3.40;;;;;;;20.98;35.52;101397.94;5009732;28;20045;-71
2022/07/19 06:36:06;;;;;;;13.48;3.10;;;;;;;21.08;35.66;101402.94;5013683;28;20042;-69
2022/07/19 06:38:33;;;;;;;7.30;2.65;;;;;;;21.30;34.86;101400.81;5013539;28;20072;-70
2022/07/19 06:40:59;;;;;;;9.13;3.10;;;;;;;21.43;34.54;101402.66;5013720;28;20452;-71
2022/07/19 06:43:26;;;;;;;10.10;2.90;;;;;;;21.55;34.48;101401.75;5012806;28;20069;-69
2022/07/19 06:45:52;;;;;;;7.40;2.70;;;;;;;21.77;34.00;101398.69;5011819;28;20062;-69
2022/07/19 06:48:19;;;;;;;5.40;2.50;;;;;;;21.93;33.83;101400.94;5012146;28;20050;-69
2022/07/19 06:50:45;;;;;;;8.02;2.92;;;;;;;22.19;33.27;101397.22;5012752;28;20061;-69
2022/07/19 06:53:12;;;;;;;11.73;3.50;;;;;;;22.44;33.07;101402.69;5012046;28;20461;-70
2022/07/19 06:55:38;;;;;;;6.78;3.00;;;;;;;22.68;32.31;101398.31;5012423;28;20129;-70
2022/07/19 06:58:05;;;;;;;7.80;3.15;;;;;;;23.01;32.20;101408.06;5012601;28;20100;-70
2022/07/19 07:00:31;;;;;;;10.75;3.05;;;;;;;23.24;32.20;101399.25;5012195;28;20517;-70
2022/07/19 07:02:58;;;;;;;13.57;3.22;;;;;;;23.59;30.72;101406.81;5012927;28;20061;-70
2022/07/19 07:05:25;;;;;;;13.80;3.50;;;;;;;23.88;30.68;101403.25;5013343;28;20474;-70
2022/07/19 07:07:53;;;;;;;7.72;3.17;;;;;;;24.37;29.58;101409.50;5012384;28;20124;-69
2022/07/19 07:10:20;;;;;;;10.02;3.17;;;;;;;24.72;29.29;101405.16;5012762;28;20165;-69
2022/07/19 07:12:46;;;;;;;13.57;3.53;;;;;;;25.09;29.24;101408.50;5012429;28;20138;-70
2022/07/19 07:15:13;;;;;;;11.63;3.13;;;;;;;25.62;27.93;101401.97;5012128;28;20351;-69
2022/07/19 07:17:40;;;;;;;10.77;2.72;;;;;;;26.09;27.08;101397.06;5012235;28;20132;-70
2022/07/19 07:20:08;;;;;;;5.90;2.72;;;;;;;26.47;26.59;101401.03;5011942;28;20065;-70
2022/07/19 07:22:35;;;;;;;11.38;3.10;;;;;;;26.64;26.16;101397.44;5012681;28;20455;-69
2022/07/19 07:25:03;;;;;;;8.18;3.22;;;;;;;27.18;25.25;101398.53;5013617;28;20046;-70
2022/07/19 07:27:30;;;;;;;13.35;3.65;;;;;;;27.62;24.47;101397.69;5013389;28;20119;-71
2022/07/19 07:29:56;;;;;;;14.63;4.57;;;;;;;28.20;24.15;101401.63;5013885;28;20393;-70
2022/07/19 07:32:26;;;;;;;11.73;3.55;;;;;;;28.46;23.28;101399.09;5013128;28;20050;-70
2022/07/19 07:34:54;;;;;;;14.35;3.67;;;;;;;28.72;22.50;101398.19;5013436;28;20053;-71
2022/07/19 07:37:20;;;;;;;10.38;3.45;;;;;;;28.92;22.03;101391.97;5012504;28;20080;-71
2022/07/19 07:39:47;;;;;;;16.73;3.20;;;;;;;28.90;22.02;101400.50;5013169;28;20062;-70
2022/07/19 07:42:14;;;;;;;16.08;3.35;;;;;;;29.29;21.61;101400.22;5013373;28;20050;-71
2022/07/19 07:44:41;;;;;;;16.83;2.80;;;;;;;29.78;21.28;101396.25;5012393;28;20497;-70
2022/07/19 07:47:11;;;;;;;9.75;2.60;;;;;;;29.69;21.34;101397.88;5011756;28;20113;-71
2022/07/19 07:49:37;;;;;;;6.07;2.97;;;;;;;30.01;20.78;101395.75;5013034;28;20072;-70
2022/07/19 07:52:05;;;;;;;7.78;3.20;;;;;;;30.39;20.12;101395.47;5012900;28;20081;-70
2022/07/19 07:54:32;;;;;;;9.55;3.45;;;;;;;30.67;20.09;101396.84;5013361;28;20048;-71
2022/07/19 07:56:59;;;;;;;5.13;2.35;;;;;;;30.86;19.85;101394.34;5012905;28;20393;-70
2022/07/19 07:59:26;;;;;;;10.13;3.05;;;;;;;31.01;19.57;101399.84;5013166;28;20072;-71
2022/07/19 08:01:53;;;;;;;10.57;3.00;;;;;;;31.40;19.33;101388.06;5011970;28;20069;-69
2022/07/19 08:04:24;;;;;;;12.00;3.20;;;;;;;31.39;19.60;101397.50;5012837;28;20050;-70
2022/07/19 08:06:51;;;;;;;8.82;2.72;;;;;;;31.61;18.78;101394.34;5011831;28;20069;-71
2022/07/19 08:09:17;;;;;;;18.02;3.58;;;;;;;31.92;19.06;101394.97;5014425;28;20460;-71
2022/07/19 08:11:44;;;;;;;13.35;3.05;;;;;;;31.94;18.82;101395.53;5015686;28;20449;-71
2022/07/19 08:14:11;;;;;;;9.95;3.60;;;;;;;31.86;18.73;101401.72;5015022;28;20413;-70
2022/07/19 08:16:37;;;;;;;14.18;2.92;;;;;;;31.51;18.34;101392.47;5016130;28;20046;-70
2022/07/19 08:19:04;;;;;;;13.95;2.67;;;;;;;32.29;18.36;101393.63;5016323;28;20050;-70
2022/07/19 08:21:31;;;;;;;15.27;3.15;;;;;;;31.90;18.23;101391.69;5015894;28;20092;-71
2022/07/19 08:23:57;;;;;;;12.80;2.95;;;;;;;31.35;18.95;101405.56;5014271;28;20096;-69
2022/07/19 08:26:24;;;;;;;10.50;2.92;;;;;;;30.93;19.20;101400.41;5013430;28;20136;-70
2022/07/19 08:28:50;;;;;;;15.50;3.83;;;;;;;31.51;18.24;101392.47;5014909;28;20038;-70
2022/07/19 08:31:17;;;;;;;12.35;2.58;;;;;;;32.22;18.23;101395.91;5013331;28;20069;-70
2022/07/19 08:33:44;;;;;;;10.05;2.60;;;;;;;32.23;17.91;101403.09;5013836;28;20092;-69
2022/07/19 08:36:10;;;;;;;10.57;2.50;;;;;;;32.71;17.39;101406.03;5014054;28;20081;-69
2022/07/19 08:38:39;;;;;;;15.25;2.80;;;;;;;32.63;17.19;101404.72;5012899;28;20084;-69
2022/07/19 08:41:06;;;;;;;8.40;2.70;;;;;;;32.79;16.91;101402.63;5014433;28;20080;-69
2022/07/19 08:43:33;;;;;;;14.75;3.22;;;;;;;33.19;17.19;101400.50;5014096;28;20049;-70
2022/07/19 08:46:01;;;;;;;15.93;3.20;;;;;;;32.96;16.91;101394.69;5015349;28;20100;-70
2022/07/19 08:48:36;;;;;;;13.55;2.90;;;;;;;33.42;16.80;101394.09;5013602;28;20153;-70
2022/07/19 08:51:13;;;;;;;6.10;2.22;;;;;;;33.28;16.45;101394.00;5012932;28;20060;-70
2022/07/19 08:53:40;;;;;;;10.88;2.90;;;;;;;33.80;16.00;101389.41;5015205;28;20493;-70
2022/07/19 08:57:57;;;;;;;6.85;2.60;;;;;;;34.04;16.02;101389.34;5014954;28;20494;-70
2022/07/19 08:58:54;;;;;;;12.27;2.65;;;;;;;34.36;15.78;101389.69;5014388;28;20046;-69
2022/07/19 09:01:20;;;;;;;11.07;2.95;;;;;;;33.22;16.12;101391.59;5014423;28;20069;-70
2022/07/19 09:04:10;;;;;;;14.57;3.00;;;;;;;33.80;15.98;101383.00;5014109;28;20046;-70
2022/07/19 09:06:41;;;;;;;7.80;3.05;;;;;;;34.32;15.94;101389.44;5012017;28;20052;-69
2022/07/19 09:09:08;;;;;;;16.27;3.78;;;;;;;34.76;15.75;101390.84;5012419;28;20096;-69
2022/07/19 09:11:37;;;;;;;14.10;2.60;;;;;;;34.25;15.36;101389.81;5013621;28;20152;-69
2022/07/19 09:14:08;;;;;;;10.80;2.47;;;;;;;33.95;15.28;101385.59;5013211;28;20070;-69
2022/07/19 09:16:52;;;;;;;10.18;2.40;;;;;;;34.91;15.22;101385.03;5013719;28;20042;-69
2022/07/19 09:19:20;;;;;;;9.98;2.67;;;;;;;35.23;14.84;101380.47;5013880;28;20085;-70
2022/07/19 09:21:56;;;;;;;10.57;2.55;;;;;;;35.48;15.02;101382.72;5014331;28;20462;-70
2022/07/19 09:24:25;;;;;;;10.60;2.90;;;;;;;35.53;14.81;101380.97;5014168;28;20100;-70
2022/07/19 09:27:02;;;;;;;9.02;2.70;;;;;;;34.83;14.95;101374.59;4994910;28;20383;-69
2022/07/19 09:29:31;;;;;;;13.82;2.80;;;;;;;35.44;14.74;101370.53;5010662;28;20064;-69
2022/07/19 09:32:12;;;;;;;11.88;2.75;;;;;;;35.91;14.19;101376.72;5014719;28;20141;-69
2022/07/19 09:34:48;;;;;;;14.27;2.75;;;;;;;36.21;14.16;101365.94;5014455;28;20053;-71
2022/07/19 09:37:18;;;;;;;9.35;3.08;;;;;;;36.29;13.41;101362.38;5014176;28;20375;-71
2022/07/19 09:39:47;;;;;;;13.90;2.47;;;;;;;36.36;13.47;101373.09;5010663;28;20508;-70
2022/07/19 09:42:17;;;;;;;9.15;2.53;;;;;;;36.49;13.19;101372.16;5013214;28;20053;-70
2022/07/19 09:44:44;;;;;;;7.77;2.50;;;;;;;36.37;13.03;101371.94;5014481;28;20052;-71
2022/07/19 09:47:11;;;;;;;11.60;2.65;;;;;;;35.92;13.57;101375.56;5013516;28;20054;-70
2022/07/19 09:49:38;;;;;;;4.85;2.47;;;;;;;34.09;14.64;101370.88;5009059;28;20504;-70
2022/07/19 09:52:05;;;;;;;6.90;2.75;;;;;;;35.67;14.00;101368.63;5021473;28;20073;-70
2022/07/19 09:54:32;;;;;;;8.27;2.30;;;;;;;35.91;13.88;101373.94;5012040;28;20080;-70
2022/07/19 09:56:59;;;;;;;9.00;2.78;;;;;;;35.79;13.56;101370.88;5013326;28;20073;-70
2022/07/19 09:59:27;;;;;;;9.30;2.85;;;;;;;36.29;13.47;101362.38;5003724;28;20073;-70
2022/07/19 10:01:56;;;;;;;8.85;2.25;;;;;;;35.81;13.45;101351.84;5013273;28;20549;-70
2022/07/19 10:04:25;;;;;;;9.25;2.55;;;;;;;35.46;14.08;101362.69;5012412;28;20050;-70
2022/07/19 10:06:53;;;;;;;5.75;2.55;;;;;;;35.36;13.81;101357.34;4997545;28;20066;-70
2022/07/19 10:09:21;;;;;;;9.98;2.30;;;;;;;35.31;14.21;101360.22;5012304;28;20070;-70
2022/07/19 10:11:55;;;;;;;6.65;2.30;;;;;;;35.73;14.03;101354.56;5012369;28;20486;-70
2022/07/19 10:14:22;;;;;;;9.55;2.80;;;;;;;36.29;13.68;101354.00;5012741;28;20121;-70
2022/07/19 10:17:11;;;;;;;6.93;2.25;;;;;;;36.50;14.04;101348.69;5013453;28;20073;-70
2022/07/19 10:19:41;;;;;;;12.63;3.03;;;;;;;35.83;14.02;101343.97;5012437;28;20113;-71
2022/07/19 10:22:13;;;;;;;8.32;3.03;;;;;;;36.33;13.55;101341.03;5013354;28;21633;-71
2022/07/19 10:24:47;;;;;;;3.38;2.20;;;;;;;37.21;12.45;101347.81;5013029;28;20069;-71
2022/07/19 10:27:16;;;;;;;21.50;3.90;;;;;;;36.26;13.21;101342.66;5013148;28;20490;-71
2022/07/19 10:29:43;;;;;;;10.43;2.58;;;;;;;37.04;12.62;101337.41;5013129;28;20062;-70
2022/07/19 10:32:13;;;;;;;7.50;2.30;;;;;;;37.64;12.04;101333.88;5011214;28;20080;-70
2022/07/19 10:34:40;;;;;;;8.38;2.50;;;;;;;36.37;13.43;101335.63;5009184;28;20046;-70
2022/07/19 10:37:07;;;;;;;8.95;2.10;;;;;;;36.18;13.15;101324.66;5012429;28;20054;-70
2022/07/19 10:39:36;;;;;;;3.80;2.00;;;;;;;36.42;12.98;101318.72;5012799;28;20132;-70
2022/07/19 10:42:15;;;;;;;9.90;2.17;;;;;;;35.93;13.42;101318.56;5012278;28;20437;-70
2022/07/19 10:44:57;;;;;;;7.70;2.10;;;;;;;35.30;14.39;101321.50;5013648;28;20100;-70
2022/07/19 10:47:26;;;;;;;3.10;2.00;;;;;;;35.77;13.28;101317.34;5011865;28;20056;-70
2022/07/19 10:50:00;;;;;;;5.45;2.72;;;;;;;34.30;14.68;101322.06;5011619;28;20134;-70
2022/07/19 10:52:27;;;;;;;6.82;2.50;;;;;;;34.53;14.43;101323.88;5012525;28;20045;-70
2022/07/19 10:55:19;;;;;;;6.45;1.85;;;;;;;35.46;13.32;101314.44;5012046;28;20050;-70
2022/07/19 10:57:58;;;;;;;9.15;2.40;;;;;;;34.91;13.95;101311.72;5012630;28;20466;-70
2022/07/19 11:00:29;;;;;;;8.25;2.67;;;;;;;34.31;14.81;101309.78;5012223;28;20106;-70
2022/07/19 11:03:24;;;;;;;8.32;2.60;;;;;;;34.15;14.84;101297.28;5011996;28;20125;-70
2022/07/19 11:05:53;;;;;;;5.78;2.50;;;;;;;34.53;14.57;101300.75;5012197;28;20046;-70
2022/07/19 11:08:32;;;;;;;4.97;2.70;;;;;;;33.97;15.10;101296.22;5012443;28;20073;-69
2022/07/19 11:11:18;;;;;;;7.80;2.78;;;;;;;34.05;15.11;101296.31;5006111;28;20491;-69
2022/07/19 11:13:47;;;;;;;8.23;2.47;;;;;;;34.71;14.52;101287.84;5011950;28;20455;-69
2022/07/19 11:16:14;;;;;;;14.48;2.80;;;;;;;34.63;14.58;101285.81;5011860;28;20069;-70
2022/07/19 11:18:43;;;;;;;9.13;2.50;;;;;;;34.03;14.87;101286.63;5011576;28;20049;-69
2022/07/19 11:21:12;;;;;;;8.88;2.47;;;;;;;33.85;15.16;101274.38;5011501;28;20045;-70
2022/07/19 11:23:39;;;;;;;7.72;2.75;;;;;;;34.11;15.00;101282.31;5011686;28;20219;-69
2022/07/19 11:26:11;;;;;;;13.20;3.60;;;;;;;34.11;15.54;101273.97;5010626;28;20065;-69
2022/07/19 11:28:39;;;;;;;7.03;2.75;;;;;;;34.44;15.18;101272.78;5010411;28;20069;-69
2022/07/19 11:31:21;;;;;;;8.65;2.80;;;;;;;34.62;14.49;101270.19;5011015;28;20046;-69